sensor_id;sensor_type;location;lat;lon;timestamp;P1;durP1;ratioP1;P2;durP2;ratioP2
56114;SDS011;41988;53.020;6.576;2023-06-14T00:01:29;9.05;;;2.03;;
56114;SDS011;41988;53.020;6.576;2023-06-14T00:04:15;4.95;;;1.92;;
56114;SDS011;41988;53.020;6.576;2023-06-14T00:07:00;6.03;;;1.73;;
56114;SDS011;41988;53.020;6.576;2023-06-14T00:09:45;3.45;;;1.65;;
56114;SDS011;41988;53.020;6.576;2023-06-14T00:12:30;8.15;;;1.85;;
56114;SDS011;41988;53.020;6.576;2023-06-14T00:15:15;6.40;;;2.10;;
56114;SDS011;41988;53.020;6.576;2023-06-14T00:18:00;7.13;;;1.70;;
56114;SDS011;41988;53.020;6.576;2023-06-14T00:20:45;6.05;;;1.70;;
56114;SDS011;41988;53.020;6.576;2023-06-14T00:23:30;4.07;;;1.90;;
56114;SDS011;41988;53.020;6.576;2023-06-14T00:26:14;5.07;;;1.88;;
56114;SDS011;41988;53.020;6.576;2023-06-14T00:28:59;4.57;;;1.75;;
56114;SDS011;41988;53.020;6.576;2023-06-14T00:31:43;10.15;;;2.95;;
56114;SDS011;41988;53.020;6.576;2023-06-14T00:34:28;3.97;;;1.65;;
56114;SDS011;41988;53.020;6.576;2023-06-14T00:37:12;4.50;;;2.00;;
56114;SDS011;41988;53.020;6.576;2023-06-14T00:39:57;4.22;;;1.73;;
56114;SDS011;41988;53.020;6.576;2023-06-14T00:42:42;4.70;;;1.50;;
56114;SDS011;41988;53.020;6.576;2023-06-14T00:45:26;4.65;;;1.80;;
56114;SDS011;41988;53.020;6.576;2023-06-14T00:48:11;5.95;;;1.77;;
56114;SDS011;41988;53.020;6.576;2023-06-14T00:50:56;5.55;;;1.70;;
56114;SDS011;41988;53.020;6.576;2023-06-14T00:53:41;3.95;;;1.48;;
56114;SDS011;41988;53.020;6.576;2023-06-14T00:56:30;6.40;;;2.13;;
56114;SDS011;41988;53.020;6.576;2023-06-14T00:59:15;4.97;;;2.00;;
56114;SDS011;41988;53.020;6.576;2023-06-14T01:02:00;2.72;;;1.70;;
56114;SDS011;41988;53.020;6.576;2023-06-14T01:04:46;3.83;;;1.65;;
56114;SDS011;41988;53.020;6.576;2023-06-14T01:07:41;4.85;;;1.77;;
56114;SDS011;41988;53.020;6.576;2023-06-14T01:13:35;8.48;;;1.80;;
56114;SDS011;41988;53.020;6.576;2023-06-14T01:16:20;7.18;;;2.15;;
56114;SDS011;41988;53.020;6.576;2023-06-14T01:19:05;6.22;;;2.35;;
56114;SDS011;41988;53.020;6.576;2023-06-14T01:21:52;5.60;;;2.15;;
56114;SDS011;41988;53.020;6.576;2023-06-14T01:24:39;5.35;;;2.35;;
56114;SDS011;41988;53.020;6.576;2023-06-14T01:27:29;4.32;;;1.95;;
56114;SDS011;41988;53.020;6.576;2023-06-14T01:30:16;6.25;;;2.15;;
56114;SDS011;41988;53.020;6.576;2023-06-14T01:33:01;4.13;;;2.10;;
56114;SDS011;41988;53.020;6.576;2023-06-14T01:35:50;7.13;;;2.17;;
56114;SDS011;41988;53.020;6.576;2023-06-14T01:38:35;7.38;;;2.83;;
56114;SDS011;41988;53.020;6.576;2023-06-14T01:41:20;4.53;;;2.33;;
56114;SDS011;41988;53.020;6.576;2023-06-14T01:44:06;6.22;;;2.22;;
56114;SDS011;41988;53.020;6.576;2023-06-14T01:46:51;3.88;;;1.77;;
56114;SDS011;41988;53.020;6.576;2023-06-14T01:49:36;5.50;;;2.03;;
56114;SDS011;41988;53.020;6.576;2023-06-14T01:52:20;4.00;;;2.13;;
56114;SDS011;41988;53.020;6.576;2023-06-14T01:55:06;5.78;;;2.83;;
56114;SDS011;41988;53.020;6.576;2023-06-14T01:57:51;4.25;;;2.25;;
56114;SDS011;41988;53.020;6.576;2023-06-14T02:00:36;5.88;;;2.33;;
56114;SDS011;41988;53.020;6.576;2023-06-14T02:03:21;9.80;;;2.47;;
56114;SDS011;41988;53.020;6.576;2023-06-14T02:06:07;5.95;;;2.53;;
56114;SDS011;41988;53.020;6.576;2023-06-14T02:08:51;4.20;;;1.83;;
56114;SDS011;41988;53.020;6.576;2023-06-14T02:11:35;9.38;;;2.30;;
56114;SDS011;41988;53.020;6.576;2023-06-14T02:14:23;7.85;;;2.15;;
56114;SDS011;41988;53.020;6.576;2023-06-14T02:17:07;3.95;;;2.67;;
56114;SDS011;41988;53.020;6.576;2023-06-14T02:19:52;4.00;;;2.10;;
56114;SDS011;41988;53.020;6.576;2023-06-14T02:22:37;4.30;;;2.08;;
56114;SDS011;41988;53.020;6.576;2023-06-14T02:25:21;6.13;;;2.03;;
56114;SDS011;41988;53.020;6.576;2023-06-14T02:28:06;4.18;;;2.92;;
56114;SDS011;41988;53.020;6.576;2023-06-14T02:30:50;6.40;;;2.15;;
56114;SDS011;41988;53.020;6.576;2023-06-14T02:33:35;5.15;;;2.00;;
56114;SDS011;41988;53.020;6.576;2023-06-14T02:36:19;24.45;;;3.35;;
56114;SDS011;41988;53.020;6.576;2023-06-14T02:39:04;5.03;;;2.22;;
56114;SDS011;41988;53.020;6.576;2023-06-14T02:41:48;4.43;;;1.77;;
56114;SDS011;41988;53.020;6.576;2023-06-14T02:44:34;7.72;;;1.90;;
56114;SDS011;41988;53.020;6.576;2023-06-14T02:47:19;6.70;;;2.63;;
56114;SDS011;41988;53.020;6.576;2023-06-14T02:50:04;5.97;;;2.38;;
56114;SDS011;41988;53.020;6.576;2023-06-14T02:52:49;5.35;;;2.20;;
56114;SDS011;41988;53.020;6.576;2023-06-14T02:55:33;5.80;;;2.30;;
56114;SDS011;41988;53.020;6.576;2023-06-14T02:58:23;4.88;;;2.53;;
56114;SDS011;41988;53.020;6.576;2023-06-14T03:01:08;9.70;;;2.35;;
56114;SDS011;41988;53.020;6.576;2023-06-14T03:03:56;5.15;;;2.28;;
56114;SDS011;41988;53.020;6.576;2023-06-14T03:06:41;4.28;;;1.95;;
56114;SDS011;41988;53.020;6.576;2023-06-14T03:09:27;4.63;;;2.85;;
56114;SDS011;41988;53.020;6.576;2023-06-14T03:12:12;4.35;;;2.33;;
56114;SDS011;41988;53.020;6.576;2023-06-14T03:14:58;6.15;;;2.50;;
56114;SDS011;41988;53.020;6.576;2023-06-14T03:17:47;4.75;;;2.20;;
56114;SDS011;41988;53.020;6.576;2023-06-14T03:20:32;5.65;;;2.30;;
56114;SDS011;41988;53.020;6.576;2023-06-14T03:23:17;5.15;;;2.13;;
56114;SDS011;41988;53.020;6.576;2023-06-14T03:26:01;5.85;;;2.15;;
56114;SDS011;41988;53.020;6.576;2023-06-14T03:28:46;4.93;;;2.10;;
56114;SDS011;41988;53.020;6.576;2023-06-14T03:31:32;5.43;;;2.28;;
56114;SDS011;41988;53.020;6.576;2023-06-14T03:34:17;4.70;;;2.35;;
56114;SDS011;41988;53.020;6.576;2023-06-14T03:37:01;5.35;;;2.10;;
56114;SDS011;41988;53.020;6.576;2023-06-14T03:39:46;6.47;;;2.40;;
56114;SDS011;41988;53.020;6.576;2023-06-14T03:42:31;4.00;;;2.17;;
56114;SDS011;41988;53.020;6.576;2023-06-14T03:45:16;4.38;;;2.17;;
56114;SDS011;41988;53.020;6.576;2023-06-14T03:48:00;12.60;;;2.53;;
56114;SDS011;41988;53.020;6.576;2023-06-14T03:50:46;5.60;;;2.58;;
56114;SDS011;41988;53.020;6.576;2023-06-14T03:53:30;6.15;;;2.50;;
56114;SDS011;41988;53.020;6.576;2023-06-14T03:56:15;4.60;;;2.30;;
56114;SDS011;41988;53.020;6.576;2023-06-14T03:59:00;4.80;;;2.50;;
56114;SDS011;41988;53.020;6.576;2023-06-14T04:01:44;5.22;;;2.10;;
56114;SDS011;41988;53.020;6.576;2023-06-14T04:04:30;5.15;;;2.80;;
56114;SDS011;41988;53.020;6.576;2023-06-14T04:07:15;10.18;;;2.80;;
56114;SDS011;41988;53.020;6.576;2023-06-14T04:10:03;6.13;;;2.60;;
56114;SDS011;41988;53.020;6.576;2023-06-14T04:12:48;4.38;;;2.13;;
56114;SDS011;41988;53.020;6.576;2023-06-14T04:15:33;9.13;;;2.65;;
56114;SDS011;41988;53.020;6.576;2023-06-14T04:18:17;4.70;;;2.33;;
56114;SDS011;41988;53.020;6.576;2023-06-14T04:21:03;4.72;;;2.20;;
56114;SDS011;41988;53.020;6.576;2023-06-14T04:23:48;5.70;;;2.42;;
56114;SDS011;41988;53.020;6.576;2023-06-14T04:26:36;3.83;;;2.30;;
56114;SDS011;41988;53.020;6.576;2023-06-14T04:29:20;3.13;;;1.77;;
56114;SDS011;41988;53.020;6.576;2023-06-14T04:32:07;4.80;;;2.20;;
56114;SDS011;41988;53.020;6.576;2023-06-14T04:34:53;5.68;;;2.80;;
56114;SDS011;41988;53.020;6.576;2023-06-14T04:37:38;9.02;;;2.90;;
56114;SDS011;41988;53.020;6.576;2023-06-14T04:40:25;6.07;;;2.45;;
56114;SDS011;41988;53.020;6.576;2023-06-14T04:43:09;4.97;;;2.25;;
56114;SDS011;41988;53.020;6.576;2023-06-14T04:45:58;6.68;;;2.92;;
56114;SDS011;41988;53.020;6.576;2023-06-14T04:48:45;5.05;;;2.50;;
56114;SDS011;41988;53.020;6.576;2023-06-14T04:51:31;7.93;;;3.05;;
56114;SDS011;41988;53.020;6.576;2023-06-14T04:54:17;4.03;;;2.25;;
56114;SDS011;41988;53.020;6.576;2023-06-14T04:57:02;5.47;;;2.67;;
56114;SDS011;41988;53.020;6.576;2023-06-14T04:59:46;12.50;;;2.95;;
56114;SDS011;41988;53.020;6.576;2023-06-14T05:02:31;8.90;;;3.33;;
56114;SDS011;41988;53.020;6.576;2023-06-14T05:05:16;3.85;;;2.30;;
56114;SDS011;41988;53.020;6.576;2023-06-14T05:08:01;9.85;;;2.45;;
56114;SDS011;41988;53.020;6.576;2023-06-14T05:10:45;4.80;;;2.47;;
56114;SDS011;41988;53.020;6.576;2023-06-14T05:13:30;7.40;;;2.70;;
56114;SDS011;41988;53.020;6.576;2023-06-14T05:16:16;4.88;;;2.40;;
56114;SDS011;41988;53.020;6.576;2023-06-14T05:19:03;7.05;;;2.40;;
56114;SDS011;41988;53.020;6.576;2023-06-14T05:21:50;4.97;;;2.30;;
56114;SDS011;41988;53.020;6.576;2023-06-14T05:24:36;5.35;;;2.92;;
56114;SDS011;41988;53.020;6.576;2023-06-14T05:27:21;7.95;;;2.72;;
56114;SDS011;41988;53.020;6.576;2023-06-14T05:30:05;5.57;;;2.47;;
56114;SDS011;41988;53.020;6.576;2023-06-14T05:32:50;8.23;;;2.60;;
56114;SDS011;41988;53.020;6.576;2023-06-14T05:35:36;6.82;;;2.90;;
56114;SDS011;41988;53.020;6.576;2023-06-14T05:38:21;6.28;;;3.30;;
56114;SDS011;41988;53.020;6.576;2023-06-14T05:41:06;8.43;;;2.90;;
56114;SDS011;41988;53.020;6.576;2023-06-14T05:43:50;8.63;;;3.10;;
56114;SDS011;41988;53.020;6.576;2023-06-14T05:46:35;5.88;;;2.45;;
56114;SDS011;41988;53.020;6.576;2023-06-14T05:49:19;7.82;;;3.10;;
56114;SDS011;41988;53.020;6.576;2023-06-14T05:52:04;4.70;;;2.50;;
56114;SDS011;41988;53.020;6.576;2023-06-14T05:54:49;6.53;;;2.70;;
56114;SDS011;41988;53.020;6.576;2023-06-14T05:57:33;8.02;;;2.60;;
56114;SDS011;41988;53.020;6.576;2023-06-14T06:00:19;8.93;;;2.78;;
56114;SDS011;41988;53.020;6.576;2023-06-14T06:03:04;6.85;;;2.92;;
56114;SDS011;41988;53.020;6.576;2023-06-14T06:05:51;7.57;;;2.85;;
56114;SDS011;41988;53.020;6.576;2023-06-14T06:08:36;5.93;;;2.53;;
56114;SDS011;41988;53.020;6.576;2023-06-14T06:11:20;9.52;;;3.15;;
56114;SDS011;41988;53.020;6.576;2023-06-14T06:14:05;8.90;;;2.67;;
56114;SDS011;41988;53.020;6.576;2023-06-14T06:16:50;9.07;;;2.33;;
56114;SDS011;41988;53.020;6.576;2023-06-14T06:19:36;5.97;;;3.00;;
56114;SDS011;41988;53.020;6.576;2023-06-14T06:22:21;6.32;;;2.75;;
56114;SDS011;41988;53.020;6.576;2023-06-14T06:25:06;7.13;;;2.45;;
56114;SDS011;41988;53.020;6.576;2023-06-14T06:27:53;7.93;;;2.95;;
56114;SDS011;41988;53.020;6.576;2023-06-14T06:30:38;5.60;;;2.50;;
56114;SDS011;41988;53.020;6.576;2023-06-14T06:33:23;5.18;;;2.80;;
56114;SDS011;41988;53.020;6.576;2023-06-14T06:36:08;5.20;;;2.20;;
56114;SDS011;41988;53.020;6.576;2023-06-14T06:38:53;8.57;;;2.30;;
56114;SDS011;41988;53.020;6.576;2023-06-14T06:41:37;3.78;;;2.38;;
56114;SDS011;41988;53.020;6.576;2023-06-14T06:44:23;4.32;;;2.47;;
56114;SDS011;41988;53.020;6.576;2023-06-14T06:47:07;5.18;;;2.13;;
56114;SDS011;41988;53.020;6.576;2023-06-14T06:49:54;8.15;;;2.60;;
56114;SDS011;41988;53.020;6.576;2023-06-14T06:52:39;3.72;;;2.20;;
56114;SDS011;41988;53.020;6.576;2023-06-14T06:55:24;5.63;;;2.40;;
56114;SDS011;41988;53.020;6.576;2023-06-14T06:58:09;7.40;;;2.53;;
56114;SDS011;41988;53.020;6.576;2023-06-14T07:00:53;4.80;;;2.20;;
56114;SDS011;41988;53.020;6.576;2023-06-14T07:03:38;4.90;;;2.00;;
56114;SDS011;41988;53.020;6.576;2023-06-14T07:06:22;8.80;;;2.83;;
56114;SDS011;41988;53.020;6.576;2023-06-14T07:09:11;5.63;;;2.30;;
56114;SDS011;41988;53.020;6.576;2023-06-14T07:11:57;4.18;;;2.00;;
56114;SDS011;41988;53.020;6.576;2023-06-14T07:14:41;3.92;;;2.10;;
56114;SDS011;41988;53.020;6.576;2023-06-14T07:17:26;6.00;;;2.50;;
56114;SDS011;41988;53.020;6.576;2023-06-14T07:20:11;8.23;;;2.65;;
56114;SDS011;41988;53.020;6.576;2023-06-14T07:22:56;7.43;;;1.80;;
56114;SDS011;41988;53.020;6.576;2023-06-14T07:25:40;4.00;;;2.30;;
56114;SDS011;41988;53.020;6.576;2023-06-14T07:28:25;4.90;;;2.03;;
56114;SDS011;41988;53.020;6.576;2023-06-14T07:31:09;6.20;;;2.00;;
56114;SDS011;41988;53.020;6.576;2023-06-14T07:33:54;4.88;;;2.17;;
56114;SDS011;41988;53.020;6.576;2023-06-14T07:36:38;10.27;;;2.40;;
56114;SDS011;41988;53.020;6.576;2023-06-14T07:39:23;6.00;;;2.00;;
56114;SDS011;41988;53.020;6.576;2023-06-14T07:42:07;9.38;;;2.17;;
56114;SDS011;41988;53.020;6.576;2023-06-14T07:44:52;6.70;;;2.75;;
56114;SDS011;41988;53.020;6.576;2023-06-14T07:47:37;6.28;;;2.08;;
56114;SDS011;41988;53.020;6.576;2023-06-14T07:50:22;7.45;;;2.67;;
56114;SDS011;41988;53.020;6.576;2023-06-14T07:53:07;4.20;;;1.60;;
56114;SDS011;41988;53.020;6.576;2023-06-14T07:55:51;3.95;;;2.00;;
56114;SDS011;41988;53.020;6.576;2023-06-14T07:58:36;6.50;;;1.80;;
56114;SDS011;41988;53.020;6.576;2023-06-14T08:01:20;3.25;;;2.28;;
56114;SDS011;41988;53.020;6.576;2023-06-14T08:04:08;5.18;;;1.98;;
56114;SDS011;41988;53.020;6.576;2023-06-14T08:06:53;5.25;;;1.90;;
56114;SDS011;41988;53.020;6.576;2023-06-14T08:09:38;4.20;;;2.10;;
56114;SDS011;41988;53.020;6.576;2023-06-14T08:12:22;3.08;;;1.75;;
56114;SDS011;41988;53.020;6.576;2023-06-14T08:15:07;9.00;;;1.80;;
56114;SDS011;41988;53.020;6.576;2023-06-14T08:17:51;6.00;;;2.10;;
56114;SDS011;41988;53.020;6.576;2023-06-14T08:20:36;6.28;;;2.03;;
56114;SDS011;41988;53.020;6.576;2023-06-14T08:23:21;4.63;;;1.70;;
56114;SDS011;41988;53.020;6.576;2023-06-14T08:26:05;4.32;;;1.83;;
56114;SDS011;41988;53.020;6.576;2023-06-14T08:28:50;4.60;;;2.15;;
56114;SDS011;41988;53.020;6.576;2023-06-14T08:31:34;6.38;;;1.98;;
56114;SDS011;41988;53.020;6.576;2023-06-14T08:34:19;2.97;;;1.70;;
56114;SDS011;41988;53.020;6.576;2023-06-14T08:37:04;4.13;;;1.80;;
56114;SDS011;41988;53.020;6.576;2023-06-14T08:39:50;4.03;;;1.83;;
56114;SDS011;41988;53.020;6.576;2023-06-14T08:42:35;6.85;;;1.50;;
56114;SDS011;41988;53.020;6.576;2023-06-14T08:45:22;3.92;;;1.83;;
56114;SDS011;41988;53.020;6.576;2023-06-14T08:48:07;6.32;;;1.77;;
56114;SDS011;41988;53.020;6.576;2023-06-14T08:50:53;7.20;;;1.90;;
56114;SDS011;41988;53.020;6.576;2023-06-14T08:53:45;5.75;;;1.90;;
56114;SDS011;41988;53.020;6.576;2023-06-14T08:56:31;5.72;;;2.30;;
56114;SDS011;41988;53.020;6.576;2023-06-14T08:59:17;3.88;;;1.65;;
56114;SDS011;41988;53.020;6.576;2023-06-14T09:02:02;7.80;;;2.38;;
56114;SDS011;41988;53.020;6.576;2023-06-14T09:04:47;4.85;;;1.80;;
56114;SDS011;41988;53.020;6.576;2023-06-14T09:07:33;2.65;;;1.50;;
56114;SDS011;41988;53.020;6.576;2023-06-14T09:10:17;3.95;;;1.80;;
56114;SDS011;41988;53.020;6.576;2023-06-14T09:13:03;4.65;;;1.70;;
56114;SDS011;41988;53.020;6.576;2023-06-14T09:15:48;5.97;;;1.60;;
56114;SDS011;41988;53.020;6.576;2023-06-14T09:18:36;8.10;;;1.90;;
56114;SDS011;41988;53.020;6.576;2023-06-14T09:21:21;6.40;;;1.95;;
56114;SDS011;41988;53.020;6.576;2023-06-14T09:24:05;5.93;;;1.63;;
56114;SDS011;41988;53.020;6.576;2023-06-14T09:26:50;6.70;;;1.98;;
56114;SDS011;41988;53.020;6.576;2023-06-14T09:29:35;3.78;;;1.88;;
56114;SDS011;41988;53.020;6.576;2023-06-14T09:32:20;7.10;;;1.77;;
56114;SDS011;41988;53.020;6.576;2023-06-14T09:35:06;3.47;;;1.58;;
56114;SDS011;41988;53.020;6.576;2023-06-14T09:37:53;5.15;;;1.67;;
56114;SDS011;41988;53.020;6.576;2023-06-14T09:40:39;5.35;;;1.90;;
56114;SDS011;41988;53.020;6.576;2023-06-14T09:43:24;5.68;;;2.28;;
56114;SDS011;41988;53.020;6.576;2023-06-14T09:46:10;4.22;;;1.58;;
56114;SDS011;41988;53.020;6.576;2023-06-14T09:48:55;4.70;;;1.70;;
56114;SDS011;41988;53.020;6.576;2023-06-14T09:51:43;6.35;;;1.80;;
56114;SDS011;41988;53.020;6.576;2023-06-14T09:54:29;3.22;;;1.70;;
56114;SDS011;41988;53.020;6.576;2023-06-14T09:57:15;4.78;;;1.60;;
56114;SDS011;41988;53.020;6.576;2023-06-14T10:00:00;3.78;;;1.85;;
56114;SDS011;41988;53.020;6.576;2023-06-14T10:02:52;5.95;;;2.00;;
56114;SDS011;41988;53.020;6.576;2023-06-14T10:05:38;2.80;;;1.55;;
56114;SDS011;41988;53.020;6.576;2023-06-14T10:08:24;4.88;;;1.70;;
56114;SDS011;41988;53.020;6.576;2023-06-14T10:11:12;4.55;;;1.63;;
56114;SDS011;41988;53.020;6.576;2023-06-14T10:13:58;8.55;;;1.75;;
56114;SDS011;41988;53.020;6.576;2023-06-14T10:16:56;4.75;;;1.70;;
56114;SDS011;41988;53.020;6.576;2023-06-14T10:19:48;3.40;;;1.90;;
56114;SDS011;41988;53.020;6.576;2023-06-14T10:22:38;3.03;;;1.73;;
56114;SDS011;41988;53.020;6.576;2023-06-14T10:25:42;3.30;;;1.35;;
56114;SDS011;41988;53.020;6.576;2023-06-14T10:28:26;3.75;;;1.60;;
56114;SDS011;41988;53.020;6.576;2023-06-14T10:31:14;4.07;;;1.58;;
56114;SDS011;41988;53.020;6.576;2023-06-14T10:34:00;2.60;;;1.50;;
56114;SDS011;41988;53.020;6.576;2023-06-14T10:36:44;3.60;;;1.50;;
56114;SDS011;41988;53.020;6.576;2023-06-14T10:39:29;3.00;;;1.50;;
56114;SDS011;41988;53.020;6.576;2023-06-14T10:42:14;3.13;;;1.30;;
56114;SDS011;41988;53.020;6.576;2023-06-14T10:44:59;4.55;;;1.50;;
56114;SDS011;41988;53.020;6.576;2023-06-14T10:47:45;3.90;;;1.50;;
56114;SDS011;41988;53.020;6.576;2023-06-14T10:50:35;2.33;;;1.13;;
56114;SDS011;41988;53.020;6.576;2023-06-14T10:53:21;3.60;;;1.30;;
56114;SDS011;41988;53.020;6.576;2023-06-14T10:56:07;6.60;;;1.45;;
56114;SDS011;41988;53.020;6.576;2023-06-14T10:58:52;5.20;;;1.55;;
56114;SDS011;41988;53.020;6.576;2023-06-14T11:01:38;3.22;;;1.50;;
56114;SDS011;41988;53.020;6.576;2023-06-14T11:04:34;3.05;;;1.40;;
56114;SDS011;41988;53.020;6.576;2023-06-14T11:10:39;3.95;;;1.33;;
56114;SDS011;41988;53.020;6.576;2023-06-14T11:13:25;5.90;;;1.13;;
56114;SDS011;41988;53.020;6.576;2023-06-14T11:16:11;2.85;;;1.30;;
56114;SDS011;41988;53.020;6.576;2023-06-14T11:18:55;3.40;;;1.15;;
56114;SDS011;41988;53.020;6.576;2023-06-14T11:21:40;3.88;;;1.58;;
56114;SDS011;41988;53.020;6.576;2023-06-14T11:24:25;5.03;;;1.20;;
56114;SDS011;41988;53.020;6.576;2023-06-14T11:27:09;3.00;;;1.30;;
56114;SDS011;41988;53.020;6.576;2023-06-14T11:29:55;4.30;;;1.40;;
56114;SDS011;41988;53.020;6.576;2023-06-14T11:32:39;2.72;;;1.38;;
56114;SDS011;41988;53.020;6.576;2023-06-14T11:35:24;4.38;;;1.55;;
56114;SDS011;41988;53.020;6.576;2023-06-14T11:38:09;2.13;;;1.10;;
56114;SDS011;41988;53.020;6.576;2023-06-14T11:40:58;4.93;;;1.45;;
56114;SDS011;41988;53.020;6.576;2023-06-14T11:43:43;4.57;;;1.80;;
56114;SDS011;41988;53.020;6.576;2023-06-14T11:46:28;4.47;;;1.40;;
56114;SDS011;41988;53.020;6.576;2023-06-14T11:49:12;1.98;;;1.20;;
56114;SDS011;41988;53.020;6.576;2023-06-14T11:51:57;2.75;;;1.55;;
56114;SDS011;41988;53.020;6.576;2023-06-14T11:54:41;3.35;;;1.55;;
56114;SDS011;41988;53.020;6.576;2023-06-14T11:57:26;4.13;;;1.70;;
56114;SDS011;41988;53.020;6.576;2023-06-14T12:00:10;5.25;;;1.55;;
56114;SDS011;41988;53.020;6.576;2023-06-14T12:03:01;5.00;;;1.38;;
56114;SDS011;41988;53.020;6.576;2023-06-14T12:05:46;3.13;;;1.25;;
56114;SDS011;41988;53.020;6.576;2023-06-14T12:08:35;5.88;;;1.80;;
56114;SDS011;41988;53.020;6.576;2023-06-14T12:11:23;5.55;;;1.52;;
56114;SDS011;41988;53.020;6.576;2023-06-14T12:14:08;5.47;;;1.58;;
56114;SDS011;41988;53.020;6.576;2023-06-14T12:17:03;4.45;;;1.30;;
56114;SDS011;41988;53.020;6.576;2023-06-14T12:19:48;4.32;;;1.50;;
56114;SDS011;41988;53.020;6.576;2023-06-14T12:22:33;3.72;;;1.70;;
56114;SDS011;41988;53.020;6.576;2023-06-14T12:25:26;3.05;;;1.35;;
56114;SDS011;41988;53.020;6.576;2023-06-14T12:28:12;2.58;;;1.40;;
56114;SDS011;41988;53.020;6.576;2023-06-14T12:30:56;2.70;;;1.30;;
56114;SDS011;41988;53.020;6.576;2023-06-14T12:33:42;6.95;;;1.40;;
56114;SDS011;41988;53.020;6.576;2023-06-14T12:36:29;5.78;;;1.42;;
56114;SDS011;41988;53.020;6.576;2023-06-14T12:39:17;3.53;;;1.92;;
56114;SDS011;41988;53.020;6.576;2023-06-14T12:42:02;5.88;;;1.70;;
56114;SDS011;41988;53.020;6.576;2023-06-14T12:44:47;3.08;;;1.30;;
56114;SDS011;41988;53.020;6.576;2023-06-14T12:47:32;4.97;;;1.95;;
56114;SDS011;41988;53.020;6.576;2023-06-14T12:50:16;4.72;;;1.65;;
56114;SDS011;41988;53.020;6.576;2023-06-14T12:53:01;2.25;;;1.30;;
56114;SDS011;41988;53.020;6.576;2023-06-14T12:55:45;4.93;;;1.58;;
56114;SDS011;41988;53.020;6.576;2023-06-14T12:58:30;2.75;;;1.50;;
56114;SDS011;41988;53.020;6.576;2023-06-14T13:01:17;2.33;;;1.25;;
56114;SDS011;41988;53.020;6.576;2023-06-14T13:04:05;2.40;;;1.40;;
56114;SDS011;41988;53.020;6.576;2023-06-14T13:06:50;3.67;;;1.63;;
56114;SDS011;41988;53.020;6.576;2023-06-14T13:09:34;3.35;;;1.65;;
56114;SDS011;41988;53.020;6.576;2023-06-14T13:12:19;2.45;;;1.27;;
56114;SDS011;41988;53.020;6.576;2023-06-14T13:15:07;4.15;;;1.60;;
56114;SDS011;41988;53.020;6.576;2023-06-14T13:17:52;2.58;;;1.25;;
56114;SDS011;41988;53.020;6.576;2023-06-14T13:20:36;2.97;;;1.50;;
56114;SDS011;41988;53.020;6.576;2023-06-14T13:23:21;2.75;;;1.40;;
56114;SDS011;41988;53.020;6.576;2023-06-14T13:26:05;3.30;;;1.45;;
56114;SDS011;41988;53.020;6.576;2023-06-14T13:28:50;3.17;;;1.45;;
56114;SDS011;41988;53.020;6.576;2023-06-14T13:31:36;2.75;;;1.40;;
56114;SDS011;41988;53.020;6.576;2023-06-14T13:34:20;3.88;;;1.70;;
56114;SDS011;41988;53.020;6.576;2023-06-14T13:37:05;3.50;;;1.30;;
56114;SDS011;41988;53.020;6.576;2023-06-14T13:39:49;2.63;;;1.42;;
56114;SDS011;41988;53.020;6.576;2023-06-14T13:42:34;2.55;;;1.33;;
56114;SDS011;41988;53.020;6.576;2023-06-14T13:45:19;5.68;;;1.30;;
56114;SDS011;41988;53.020;6.576;2023-06-14T13:48:03;4.25;;;1.50;;
56114;SDS011;41988;53.020;6.576;2023-06-14T13:50:48;4.63;;;1.67;;
56114;SDS011;41988;53.020;6.576;2023-06-14T13:53:33;3.03;;;1.20;;
56114;SDS011;41988;53.020;6.576;2023-06-14T13:56:18;5.18;;;1.40;;
56114;SDS011;41988;53.020;6.576;2023-06-14T13:59:03;4.18;;;1.60;;
56114;SDS011;41988;53.020;6.576;2023-06-14T14:01:47;3.72;;;1.48;;
56114;SDS011;41988;53.020;6.576;2023-06-14T14:04:33;2.75;;;1.30;;
56114;SDS011;41988;53.020;6.576;2023-06-14T14:07:19;6.00;;;1.73;;
56114;SDS011;41988;53.020;6.576;2023-06-14T14:10:04;5.85;;;1.40;;
56114;SDS011;41988;53.020;6.576;2023-06-14T14:12:49;3.08;;;1.40;;
56114;SDS011;41988;53.020;6.576;2023-06-14T14:15:34;4.72;;;1.35;;
56114;SDS011;41988;53.020;6.576;2023-06-14T14:18:18;4.95;;;1.50;;
56114;SDS011;41988;53.020;6.576;2023-06-14T14:21:08;2.97;;;1.50;;
56114;SDS011;41988;53.020;6.576;2023-06-14T14:23:53;2.40;;;1.40;;
56114;SDS011;41988;53.020;6.576;2023-06-14T14:26:40;4.25;;;1.50;;
56114;SDS011;41988;53.020;6.576;2023-06-14T14:29:25;3.13;;;1.55;;
56114;SDS011;41988;53.020;6.576;2023-06-14T14:32:12;2.92;;;1.33;;
56114;SDS011;41988;53.020;6.576;2023-06-14T14:34:58;2.58;;;1.50;;
56114;SDS011;41988;53.020;6.576;2023-06-14T14:37:43;2.88;;;1.50;;
56114;SDS011;41988;53.020;6.576;2023-06-14T14:40:28;4.05;;;1.55;;
56114;SDS011;41988;53.020;6.576;2023-06-14T14:43:12;2.35;;;1.45;;
56114;SDS011;41988;53.020;6.576;2023-06-14T14:45:57;3.20;;;1.42;;
56114;SDS011;41988;53.020;6.576;2023-06-14T14:48:41;4.32;;;1.52;;
56114;SDS011;41988;53.020;6.576;2023-06-14T14:51:26;2.60;;;1.40;;
56114;SDS011;41988;53.020;6.576;2023-06-14T14:54:11;4.35;;;1.50;;
56114;SDS011;41988;53.020;6.576;2023-06-14T14:56:55;3.08;;;1.40;;
56114;SDS011;41988;53.020;6.576;2023-06-14T14:59:40;3.13;;;1.45;;
56114;SDS011;41988;53.020;6.576;2023-06-14T15:02:24;2.88;;;1.50;;
56114;SDS011;41988;53.020;6.576;2023-06-14T15:05:09;6.30;;;1.40;;
56114;SDS011;41988;53.020;6.576;2023-06-14T15:07:53;5.05;;;1.33;;
56114;SDS011;41988;53.020;6.576;2023-06-14T15:10:38;4.20;;;1.73;;
56114;SDS011;41988;53.020;6.576;2023-06-14T15:13:24;3.03;;;1.77;;
56114;SDS011;41988;53.020;6.576;2023-06-14T15:16:09;3.75;;;1.40;;
56114;SDS011;41988;53.020;6.576;2023-06-14T15:18:54;5.18;;;1.65;;
56114;SDS011;41988;53.020;6.576;2023-06-14T15:21:38;2.85;;;1.30;;
56114;SDS011;41988;53.020;6.576;2023-06-14T15:24:23;3.28;;;1.80;;
56114;SDS011;41988;53.020;6.576;2023-06-14T15:27:08;4.70;;;1.63;;
56114;SDS011;41988;53.020;6.576;2023-06-14T15:29:52;4.65;;;1.75;;
56114;SDS011;41988;53.020;6.576;2023-06-14T15:32:36;3.20;;;1.60;;
56114;SDS011;41988;53.020;6.576;2023-06-14T15:35:21;3.03;;;1.58;;
56114;SDS011;41988;53.020;6.576;2023-06-14T15:38:06;2.67;;;1.58;;
56114;SDS011;41988;53.020;6.576;2023-06-14T15:40:50;6.93;;;1.50;;
56114;SDS011;41988;53.020;6.576;2023-06-14T15:43:35;2.78;;;1.30;;
56114;SDS011;41988;53.020;6.576;2023-06-14T15:46:22;4.65;;;1.77;;
56114;SDS011;41988;53.020;6.576;2023-06-14T15:49:10;4.32;;;1.33;;
56114;SDS011;41988;53.020;6.576;2023-06-14T15:51:55;4.32;;;1.50;;
56114;SDS011;41988;53.020;6.576;2023-06-14T15:54:41;4.82;;;1.80;;
56114;SDS011;41988;53.020;6.576;2023-06-14T15:57:25;4.80;;;1.73;;
56114;SDS011;41988;53.020;6.576;2023-06-14T16:00:10;5.38;;;2.05;;
56114;SDS011;41988;53.020;6.576;2023-06-14T16:02:54;4.18;;;1.70;;
56114;SDS011;41988;53.020;6.576;2023-06-14T16:05:39;3.35;;;1.75;;
56114;SDS011;41988;53.020;6.576;2023-06-14T16:08:24;3.33;;;1.65;;
56114;SDS011;41988;53.020;6.576;2023-06-14T16:11:08;4.05;;;1.67;;
56114;SDS011;41988;53.020;6.576;2023-06-14T16:13:53;4.25;;;1.65;;
56114;SDS011;41988;53.020;6.576;2023-06-14T16:16:39;4.40;;;1.80;;
56114;SDS011;41988;53.020;6.576;2023-06-14T16:19:24;3.75;;;1.67;;
56114;SDS011;41988;53.020;6.576;2023-06-14T16:22:08;4.32;;;1.60;;
56114;SDS011;41988;53.020;6.576;2023-06-14T16:24:53;2.50;;;1.52;;
56114;SDS011;41988;53.020;6.576;2023-06-14T16:27:37;4.22;;;1.67;;
56114;SDS011;41988;53.020;6.576;2023-06-14T16:30:22;3.28;;;1.63;;
56114;SDS011;41988;53.020;6.576;2023-06-14T16:33:06;4.20;;;1.63;;
56114;SDS011;41988;53.020;6.576;2023-06-14T16:35:51;3.10;;;1.83;;
56114;SDS011;41988;53.020;6.576;2023-06-14T16:38:35;8.00;;;1.80;;
56114;SDS011;41988;53.020;6.576;2023-06-14T16:41:20;7.25;;;1.67;;
56114;SDS011;41988;53.020;6.576;2023-06-14T16:44:07;6.22;;;2.20;;